Предлагаем Вашему вниманию английскую версию страницы: AUTOTAF.ME 34644 - aviation weather forecast Konstantinovsk

AUTOTAF 34644 - авиапрогноз Константиновск

Сегодня рассвет 03:13 UTC, восход солнца 03:44 UTC,
местный полдень 09:00 UTC, заход солнца 14:15 UTC,
наступление темноты 14:47 UTC.

Краткий прогноз 34644 на 9 часов

AUTOTAF.ME 34644 212000Z 2121/2206 VRB02MPS CAVOK

Детальный прогноз 34644 на 24 часа

AUTOTAF.ME 34644 212000Z 2121/2221 VRB02MPS 9999 OVC150 TX17/2212Z TN07/2203Z     
  BECMG 2207/2209 SCT048  
  BECMG 2210/2212 25005MPS   
  BECMG 2216/2218 BKN018  
  FM222100 23003MPS 5000 BR BKN010

Подробный табличный прогноз

Время (UTC) miniAUTOTAF на 3 ч WX FZLVL
M AGL
ICE TURB Т
(°С)
Тd
(°С)
f(%) QNH
(гПа)
WIND/T
18 VRB02MPS 9999 OVC150 2550 MOD FL170/FL180 MOD FL20/FL150 10 -3 42 1026 ...
21 VRB02MPS 9999 OVC150 2400 MOD FL170/FL180 MOD FL150/FL160 9 -3 45 1025 ...
22.10.2020
00 VRB02MPS 9999 BKN119 2100 MOD FL120/FL130 MOD FL120/FL130 8 -3 47 1024 ...
03 VRB02MPS 9999 OVC130 2400 MOD FL150/FL160 7 -2 53 1023 ...
06 21004MPS 9999 BKN140 2550 11 -1 43 1023 ...
09 23004MPS 9999 SCT048 2550 MOD SFC/FL30 15 0 37 1023 ...
12 25005MPS 9999 BKN048 2550 MOD FL170/FL180 MOD SFC/FL50 17 3 39 1022 ...
15 22003MPS 9999 BKN033 2700 FBL FL150/FL170 MOD FL20/FL40 13 4 56 1021 ...
18 22003MPS 9999 BKN018 2550 FBL FL110/FL150 MOD FL20/FL30 11 4 62 1022 ...
21 23003MPS 5000 BR BKN010 BR 2700 FBL FL110/FL120 11 8 83 1021 ...
23.10.2020
00 23003MPS 3000 BR BKN005 BR 2700 MOD FL110/FL120 11 9 92 1021 ...
03 22004MPS 3000 BR BKN005 BR 3000 MOD FL190/FL200 10 9 94 1021 ...
06 24005MPS 9999 SCT010 3000 MOD FL110/FL150 MOD FL110/FL120 14 10 76 1021 ...
09 25009G14MPS 9999 OVC100 3000 FBL FL120/FL190 MOD SFC/FL20 19 9 53 1020 ...
12 25009G14MPS 9999 BKN100 3000 MOD FL170/FL180 MOD SFC/FL20 20 10 51 1018 ...
15 26004MPS 9999 SCT121 3300 MOD FL120/FL190 16 11 73 1018 ...


Широта 47.6°, долгота 41.1°, высота 66 м абс.
Средняя высота рельефа местности 19 м абс.
Прогнозы обновляются четыре раза в сутки: в 02, 08, 14, 20 ч всемирного времени.


Выбрать прогноз по другой модели Константиновск
Онлайн-сводка гроз по Константиновск (для РФ и ближнего зарубежья)
Карта фактических гроз в окрестностях Константиновск
Динамические прогностические карты (ventusky.com)
Прогностическая карта высоты нижней границы облаков по Константиновск (windy.com)
Выбрать другой город

Прогноз предназначен для личного научно-познавательного использования частными лицами
и не предназначен для принятия важных решений и выполнения реальных полётов воздушных судов

При копировании или ином использовании любых материалов данного сайта ссылка на © meteocenter.asia обязательна.

0.8/1.2